createdAt,value
2022-08-03T00:01:25.943Z,100384.59
2022-08-03T00:03:52.514Z,100405.97
2022-08-03T00:06:19.268Z,100405.00
2022-08-03T00:08:45.868Z,100401.69
2022-08-03T00:11:12.564Z,100403.97
2022-08-03T00:13:39.100Z,100402.97
2022-08-03T00:16:05.789Z,100396.03
2022-08-03T00:18:32.363Z,100401.03
2022-08-03T00:20:58.927Z,100385.41
2022-08-03T00:23:26.868Z,100398.47
2022-08-03T00:25:54.966Z,100399.59
2022-08-03T00:28:21.656Z,100387.81
2022-08-03T00:30:48.220Z,100377.34
2022-08-03T00:33:15.288Z,100395.63
2022-08-03T00:35:50.670Z,100375.06
2022-08-03T00:38:18.325Z,100374.50
2022-08-03T00:40:44.954Z,100364.59
2022-08-03T00:43:11.611Z,100378.47
2022-08-03T00:45:40.198Z,100390.09
2022-08-03T00:48:23.289Z,100392.09
2022-08-03T00:50:56.178Z,100370.25
2022-08-03T00:53:22.883Z,100390.81
2022-08-03T00:55:49.433Z,100401.75
2022-08-03T00:58:16.143Z,100399.47
2022-08-03T01:00:42.805Z,100389.81
2022-08-03T01:03:10.956Z,100399.16
2022-08-03T01:05:53.304Z,100393.78
2022-08-03T01:08:37.523Z,100396.22
2022-08-03T01:11:24.088Z,100397.56
2022-08-03T01:14:18.039Z,100374.69
2022-08-03T01:16:55.934Z,100398.50
2022-08-03T01:19:28.142Z,100386.88
2022-08-03T01:22:18.145Z,100384.72
2022-08-03T01:24:59.100Z,100386.09
2022-08-03T01:27:54.817Z,100383.25
2022-08-03T01:30:24.770Z,100384.66
2022-08-03T01:33:15.831Z,100391.28
2022-08-03T01:35:47.321Z,100396.22
2022-08-03T01:38:18.350Z,100385.25
2022-08-03T01:40:56.151Z,100386.00
2022-08-03T01:43:55.312Z,100381.16
2022-08-03T01:46:16.051Z,100387.06
2022-08-03T01:48:44.922Z,100380.34
2022-08-03T01:51:12.361Z,100377.38
2022-08-03T01:53:43.967Z,100364.00
2022-08-03T01:56:11.767Z,100353.19
2022-08-03T01:58:40.786Z,100375.72
2022-08-03T02:01:10.288Z,100376.28
2022-08-03T02:04:00.772Z,100382.50
2022-08-03T02:07:02.356Z,100364.59
2022-08-03T02:09:16.017Z,100371.09
2022-08-03T02:11:44.866Z,100372.47
2022-08-03T02:14:11.448Z,100382.97
2022-08-03T02:16:38.261Z,100370.03
2022-08-03T02:19:07.366Z,100384.97
2022-08-03T02:21:57.471Z,100380.03
2022-08-03T02:24:23.850Z,100381.00
2022-08-03T02:26:51.890Z,100377.97
2022-08-03T02:29:38.628Z,100353.78
2022-08-03T02:32:12.599Z,100372.53
2022-08-03T02:34:42.160Z,100375.78
2022-08-03T02:37:11.572Z,100372.72
2022-08-03T02:39:41.069Z,100342.91
2022-08-03T02:42:09.421Z,100373.53
2022-08-03T02:44:41.566Z,100359.88
2022-08-03T02:47:10.926Z,100375.41
2022-08-03T02:49:50.915Z,100359.19
2022-08-03T02:52:21.721Z,100354.84
2022-08-03T02:54:51.254Z,100367.78
2022-08-03T02:57:19.924Z,100373.84
2022-08-03T02:59:47.695Z,100371.38
2022-08-03T03:02:16.577Z,100357.47
2022-08-03T03:05:50.702Z,100372.09
2022-08-03T03:07:45.405Z,100358.56
2022-08-03T03:10:20.548Z,100372.97
2022-08-03T03:12:48.387Z,100369.41
2022-08-03T03:15:14.953Z,100371.88
2022-08-03T03:17:43.310Z,100372.53
2022-08-03T03:20:10.674Z,100369.00
2022-08-03T03:22:38.601Z,100371.81
2022-08-03T03:25:07.354Z,100370.03
2022-08-03T03:27:34.471Z,100358.09
2022-08-03T03:30:02.501Z,100370.28
2022-08-03T03:32:32.434Z,100372.28
2022-08-03T03:35:00.164Z,100371.56
2022-08-03T03:37:27.119Z,100378.38
2022-08-03T03:39:55.100Z,100392.66
2022-08-03T03:42:22.085Z,100382.28
2022-08-03T03:44:49.012Z,100381.44
2022-08-03T03:47:15.619Z,100382.03
2022-08-03T03:49:43.796Z,100360.13
2022-08-03T03:52:10.756Z,100382.69
2022-08-03T03:54:45.196Z,100380.38
2022-08-03T03:57:13.014Z,100376.09
2022-08-03T03:59:42.074Z,100378.06
2022-08-03T04:02:09.879Z,100373.66
2022-08-03T04:04:56.553Z,100366.38
2022-08-03T04:07:44.752Z,100361.50
2022-08-03T04:10:37.310Z,100372.09
2022-08-03T04:13:09.967Z,100377.47
2022-08-03T04:15:39.628Z,100382.84
2022-08-03T04:18:09.576Z,100385.53
2022-08-03T04:20:38.734Z,100364.06
2022-08-03T04:23:13.501Z,100379.16
2022-08-03T04:25:43.538Z,100378.16
2022-08-03T04:28:30.995Z,100355.03
2022-08-03T04:30:59.549Z,100377.06
2022-08-03T04:33:30.364Z,100388.78
2022-08-03T04:36:02.727Z,100385.25
2022-08-03T04:38:39.805Z,100373.78
2022-08-03T04:41:08.821Z,100363.69
2022-08-03T04:43:39.656Z,100391.94
2022-08-03T04:46:08.245Z,100394.63
2022-08-03T04:48:35.288Z,100382.94
2022-08-03T04:51:04.335Z,100378.41
2022-08-03T04:53:31.438Z,100386.97
2022-08-03T04:56:04.527Z,100382.44
2022-08-03T04:58:31.245Z,100377.19
2022-08-03T05:00:57.857Z,100394.19
2022-08-03T05:03:25.130Z,100402.50
2022-08-03T05:06:09.848Z,100400.25
2022-08-03T05:08:46.077Z,100403.44
2022-08-03T05:11:15.531Z,100402.06
2022-08-03T05:13:42.393Z,100385.09
2022-08-03T05:16:09.149Z,100375.53
2022-08-03T05:18:36.075Z,100407.72
2022-08-03T05:21:02.728Z,100398.44
2022-08-03T05:23:29.500Z,100382.69
2022-08-03T05:25:56.191Z,100409.72
2022-08-03T05:28:23.134Z,100402.81
2022-08-03T05:30:49.705Z,100402.16
2022-08-03T05:33:16.435Z,100410.53
2022-08-03T05:36:01.669Z,100409.88
2022-08-03T05:38:35.103Z,100405.09
2022-08-03T05:41:21.732Z,100401.75
2022-08-03T05:43:54.419Z,100413.00
2022-08-03T05:46:22.389Z,100411.38
2022-08-03T05:48:49.092Z,100414.63
2022-08-03T05:51:15.882Z,100419.50
2022-08-03T05:53:43.426Z,100416.41
2022-08-03T05:56:14.553Z,100418.81
2022-08-03T05:58:48.068Z,100421.41
2022-08-03T06:01:16.194Z,100422.28
2022-08-03T06:03:42.960Z,100426.00
2022-08-03T06:06:09.636Z,100400.22
2022-08-03T06:08:36.216Z,100414.13
2022-08-03T06:11:03.773Z,100423.78
2022-08-03T06:13:30.418Z,100428.22
2022-08-03T06:15:57.071Z,100422.88
2022-08-03T06:18:24.689Z,100417.47
2022-08-03T06:20:52.286Z,100424.56
2022-08-03T06:23:19.339Z,100395.75
2022-08-03T06:25:47.310Z,100425.69
2022-08-03T06:28:42.527Z,100406.16
2022-08-03T06:31:01.929Z,100418.25
2022-08-03T06:33:48.428Z,100415.38
2022-08-03T06:36:15.830Z,100410.06
2022-08-03T06:38:42.427Z,100407.97
2022-08-03T06:41:09.043Z,100407.94
2022-08-03T06:43:37.936Z,100413.25
2022-08-03T06:46:24.090Z,100405.38
2022-08-03T06:48:50.744Z,100401.22
2022-08-03T06:51:17.333Z,100404.84
2022-08-03T06:53:43.939Z,100408.91
2022-08-03T06:56:11.198Z,100416.09
2022-08-03T06:58:37.924Z,100419.41
2022-08-03T07:01:04.560Z,100406.56
2022-08-03T07:03:31.387Z,100423.66
2022-08-03T07:05:59.688Z,100420.09
2022-08-03T07:08:33.758Z,100427.44
2022-08-03T07:11:01.001Z,100421.88
2022-08-03T07:13:27.652Z,100423.84
2022-08-03T07:15:56.405Z,100426.19
2022-08-03T07:18:29.630Z,100421.75
2022-08-03T07:20:57.647Z,100426.81
2022-08-03T07:23:25.448Z,100418.03
2022-08-03T07:25:52.069Z,100422.94
2022-08-03T07:28:20.070Z,100425.94
2022-08-03T07:30:47.043Z,100427.06
2022-08-03T07:33:13.950Z,100419.09
2022-08-03T07:35:40.572Z,100397.97
2022-08-03T07:38:07.250Z,100418.94
2022-08-03T07:40:33.829Z,100428.81
2022-08-03T07:43:00.741Z,100421.19
2022-08-03T07:45:27.310Z,100422.31
2022-08-03T07:47:54.580Z,100425.28
2022-08-03T07:50:22.300Z,100421.84
2022-08-03T07:52:50.763Z,100423.06
2022-08-03T07:55:19.171Z,100422.31
2022-08-03T07:57:45.832Z,100419.78
2022-08-03T08:00:19.484Z,100415.91
2022-08-03T08:02:46.362Z,100419.75
2022-08-03T08:05:13.373Z,100417.50
2022-08-03T08:07:40.670Z,100413.09
2022-08-03T08:10:09.981Z,100397.84
2022-08-03T08:12:38.735Z,100406.97
2022-08-03T08:15:06.076Z,100405.09
2022-08-03T08:17:42.022Z,100399.47
2022-08-03T08:20:09.656Z,100394.38
2022-08-03T08:22:36.284Z,100397.25
2022-08-03T08:25:06.132Z,100399.88
2022-08-03T08:28:31.598Z,100390.50
2022-08-03T08:30:21.885Z,100395.59
2022-08-03T08:32:49.601Z,100388.44
2022-08-03T08:35:17.095Z,100379.59
2022-08-03T08:37:44.209Z,100390.22
2022-08-03T08:40:21.840Z,100395.84
2022-08-03T08:42:57.865Z,100397.28
2022-08-03T08:45:25.232Z,100397.75
2022-08-03T08:47:54.709Z,100398.44
2022-08-03T08:50:27.629Z,100393.44
2022-08-03T08:52:56.421Z,100383.13
2022-08-03T08:55:23.883Z,100393.81
2022-08-03T08:58:02.030Z,100387.69
2022-08-03T09:00:28.748Z,100387.28
2022-08-03T09:02:55.376Z,100359.09
2022-08-03T09:05:35.728Z,100385.66
2022-08-03T09:08:08.869Z,100391.22
2022-08-03T09:10:35.661Z,100385.25
2022-08-03T09:13:02.271Z,100383.38
2022-08-03T09:15:33.341Z,100385.69
2022-08-03T09:18:02.614Z,100381.28
2022-08-03T09:20:32.218Z,100379.47
2022-08-03T09:23:18.990Z,100364.22
2022-08-03T09:25:59.849Z,100364.84
2022-08-03T09:29:00.036Z,100379.41
2022-08-03T09:31:20.848Z,100362.47
2022-08-03T09:33:48.814Z,100366.75
2022-08-03T09:36:47.833Z,100380.66
2022-08-03T09:39:19.901Z,100376.69
2022-08-03T09:42:15.530Z,100380.31
2022-08-03T09:44:44.573Z,100358.00
2022-08-03T09:47:13.009Z,100359.97
2022-08-03T09:49:42.838Z,100364.69
2022-08-03T09:52:37.773Z,100369.28
2022-08-03T09:55:02.808Z,100366.31
2022-08-03T09:57:32.614Z,100361.38
2022-08-03T10:00:12.053Z,100362.03
2022-08-03T10:02:39.962Z,100357.47
2022-08-03T10:05:08.505Z,100366.41
2022-08-03T10:07:50.827Z,100362.47
2022-08-03T10:10:31.020Z,100354.75
2022-08-03T10:13:00.064Z,100335.31
2022-08-03T10:16:24.077Z,100345.84
2022-08-03T10:18:14.167Z,100341.88
2022-08-03T10:20:46.933Z,100347.59
2022-08-03T10:23:14.949Z,100340.06
2022-08-03T10:25:43.836Z,100338.25
2022-08-03T10:28:15.040Z,100336.78
2022-08-03T10:30:45.792Z,100321.84
2022-08-03T10:33:51.082Z,100330.94
2022-08-03T10:36:07.334Z,100330.72
2022-08-03T10:38:40.526Z,100309.22
2022-08-03T10:41:09.013Z,100322.06
2022-08-03T10:43:52.884Z,100324.22
2022-08-03T10:46:21.089Z,100303.38
2022-08-03T10:48:50.026Z,100308.03
2022-08-03T10:51:17.327Z,100298.16
2022-08-03T10:53:54.132Z,100303.66
2022-08-03T10:56:52.558Z,100304.91
2022-08-03T10:59:40.840Z,100300.34
2022-08-03T11:02:09.942Z,100291.53
2022-08-03T11:04:36.497Z,100270.25
2022-08-03T11:07:22.106Z,100287.13
2022-08-03T11:09:53.994Z,100289.38
2022-08-03T11:12:30.904Z,100283.66
2022-08-03T11:15:05.297Z,100291.06
2022-08-03T11:17:33.923Z,100292.91
2022-08-03T11:20:13.760Z,100281.75
2022-08-03T11:22:54.561Z,100264.94
2022-08-03T11:25:54.428Z,100265.72
2022-08-03T11:28:29.025Z,100278.94
2022-08-03T11:30:57.256Z,100276.56
2022-08-03T11:33:30.875Z,100272.59
2022-08-03T11:36:02.100Z,100272.19
2022-08-03T11:38:28.686Z,100273.59
2022-08-03T11:40:55.329Z,100267.28
2022-08-03T11:43:21.842Z,100270.84
2022-08-03T11:46:12.581Z,100261.16
2022-08-03T11:48:44.115Z,100260.50
2022-08-03T11:51:22.895Z,100268.53
2022-08-03T11:53:54.400Z,100262.00
2022-08-03T11:56:21.029Z,100269.78
2022-08-03T11:58:58.057Z,100264.31
2022-08-03T12:01:36.389Z,100254.16
2022-08-03T12:04:04.818Z,100252.94
2022-08-03T12:06:31.379Z,100238.38
2022-08-03T12:08:57.915Z,100228.00
2022-08-03T12:11:24.471Z,100235.16
2022-08-03T12:14:35.719Z,100249.00
2022-08-03T12:16:37.973Z,100249.06
2022-08-03T12:19:06.657Z,100242.16
2022-08-03T12:21:33.517Z,100246.22
2022-08-03T12:24:02.660Z,100241.38
2022-08-03T12:26:31.075Z,100238.84
2022-08-03T12:28:58.331Z,100232.31
2022-08-03T12:31:25.218Z,100216.09
2022-08-03T12:34:03.612Z,100210.00
2022-08-03T12:36:32.146Z,100238.22
2022-08-03T12:39:04.726Z,100231.84
2022-08-03T12:41:34.116Z,100218.88
2022-08-03T12:44:03.460Z,100219.09
2022-08-03T12:46:57.409Z,100227.09
2022-08-03T12:49:24.199Z,100217.75
2022-08-03T12:51:50.813Z,100217.63
2022-08-03T12:54:24.422Z,100208.69
2022-08-03T12:57:08.028Z,100227.81
2022-08-03T12:59:45.045Z,100224.31
2022-08-03T13:02:19.277Z,100225.53
2022-08-03T13:04:51.546Z,100228.59
2022-08-03T13:07:19.399Z,100229.72
2022-08-03T13:09:49.369Z,100220.78
2022-08-03T13:12:17.421Z,100215.47
2022-08-03T13:14:46.933Z,100219.41
2022-08-03T13:17:14.007Z,100211.44
2022-08-03T13:19:40.848Z,100216.31
2022-08-03T13:22:16.899Z,100203.78
2022-08-03T13:24:44.765Z,100210.41
2022-08-03T13:27:59.450Z,100212.94
2022-08-03T13:29:59.136Z,100206.59
2022-08-03T13:32:25.789Z,100200.81
2022-08-03T13:34:52.421Z,100203.00
2022-08-03T13:37:19.082Z,100197.34
2022-08-03T13:39:58.433Z,100185.06
2022-08-03T13:42:29.448Z,100196.66
2022-08-03T13:44:56.057Z,100186.69
2022-08-03T13:47:22.931Z,100193.09
2022-08-03T13:49:59.596Z,100189.88
2022-08-03T13:52:32.411Z,100164.88
2022-08-03T13:54:59.973Z,100179.81
2022-08-03T13:58:05.941Z,100185.44
2022-08-03T14:00:17.211Z,100179.66
2022-08-03T14:02:59.923Z,100153.25
2022-08-03T14:05:32.297Z,100173.84
2022-08-03T14:08:03.969Z,100171.44
2022-08-03T14:10:31.894Z,100157.81
2022-08-03T14:13:00.583Z,100173.97
2022-08-03T14:15:28.702Z,100163.81
2022-08-03T14:17:56.272Z,100168.81
2022-08-03T14:20:26.014Z,100156.63
2022-08-03T14:23:06.823Z,100153.31
2022-08-03T14:25:43.277Z,100149.41
2022-08-03T14:28:18.698Z,100145.97
2022-08-03T14:30:45.674Z,100149.41
2022-08-03T14:33:12.274Z,100151.47
2022-08-03T14:35:39.030Z,100146.59
2022-08-03T14:38:05.704Z,100150.53
2022-08-03T14:40:32.596Z,100152.03
2022-08-03T14:42:59.170Z,100128.94
2022-08-03T14:45:25.709Z,100149.22
2022-08-03T14:50:28.498Z,100137.69
2022-08-03T14:50:43.193Z,100128.31
2022-08-03T14:53:12.184Z,100153.16
2022-08-03T14:55:50.774Z,100142.41
2022-08-03T14:58:20.916Z,100138.94
2022-08-03T15:00:48.960Z,100127.56
2022-08-03T15:03:17.239Z,100135.84
2022-08-03T15:05:44.766Z,100117.03
2022-08-03T15:08:11.570Z,100130.53
2022-08-03T15:10:40.520Z,100107.94
2022-08-03T15:13:12.575Z,100123.25
2022-08-03T15:15:39.255Z,100108.84
2022-08-03T15:18:06.057Z,100113.31
2022-08-03T15:20:43.778Z,100108.91
2022-08-03T15:23:11.601Z,100111.31
2022-08-03T15:26:28.840Z,100103.06
2022-08-03T15:28:24.932Z,100091.19
2022-08-03T15:30:54.448Z,100100.44
2022-08-03T15:33:21.024Z,100094.16
2022-08-03T15:35:47.999Z,100104.97
2022-08-03T15:38:14.759Z,100096.50
2022-08-03T15:40:41.685Z,100076.41
2022-08-03T15:43:08.693Z,100087.97
2022-08-03T15:45:36.591Z,100066.25
2022-08-03T15:48:05.694Z,100090.09
2022-08-03T15:50:32.407Z,100088.63
2022-08-03T15:52:58.965Z,100069.78
2022-08-03T15:55:25.907Z,100072.75
2022-08-03T15:59:04.506Z,100078.47
2022-08-03T16:00:40.426Z,100066.81
2022-08-03T16:03:07.039Z,100071.53
2022-08-03T16:05:33.867Z,100066.59
2022-08-03T16:08:03.594Z,100071.25
2022-08-03T16:10:31.358Z,100077.44
2022-08-03T16:13:00.827Z,100071.94
2022-08-03T16:15:27.801Z,100051.41
2022-08-03T16:17:54.819Z,100066.72
2022-08-03T16:20:31.699Z,100059.41
2022-08-03T16:23:05.496Z,100049.97
2022-08-03T16:25:42.030Z,100063.84
2022-08-03T16:28:13.881Z,100063.75
2022-08-03T16:30:43.291Z,100065.75
2022-08-03T16:33:11.008Z,100047.28
2022-08-03T16:35:37.859Z,100062.19
2022-08-03T16:38:09.726Z,100055.50
2022-08-03T16:40:38.413Z,100069.81
2022-08-03T16:43:18.230Z,100069.47
2022-08-03T16:45:47.149Z,100046.81
2022-08-03T16:48:15.136Z,100064.94
2022-08-03T16:50:41.926Z,100064.94
2022-08-03T16:53:09.831Z,100064.97
2022-08-03T16:55:48.522Z,100061.38
2022-08-03T16:58:19.530Z,100051.41
2022-08-03T17:01:01.720Z,100063.97
2022-08-03T17:04:02.411Z,100057.59
2022-08-03T17:06:35.282Z,100063.06
2022-08-03T17:09:18.113Z,100070.69
2022-08-03T17:11:47.880Z,100039.59
2022-08-03T17:14:16.206Z,100064.75
2022-08-03T17:16:52.206Z,100056.63
2022-08-03T17:19:23.203Z,100055.16
2022-08-03T17:21:58.113Z,100059.50
2022-08-03T17:24:52.139Z,100057.44
2022-08-03T17:28:51.371Z,100057.28
2022-08-03T17:30:18.909Z,100037.41
2022-08-03T17:32:56.526Z,100051.75
2022-08-03T17:35:34.296Z,100054.50
2022-08-03T17:38:06.672Z,100038.00
2022-08-03T17:40:35.825Z,100058.22
2022-08-03T17:44:14.246Z,100057.19
2022-08-03T17:45:52.892Z,100053.47
2022-08-03T17:48:25.261Z,100052.91
2022-08-03T17:50:59.515Z,100051.69
2022-08-03T17:53:36.598Z,100032.88
2022-08-03T17:56:44.373Z,100034.59
2022-08-03T17:59:51.843Z,100045.53
2022-08-03T18:02:34.808Z,100052.78
2022-08-03T18:05:16.432Z,100060.38
2022-08-03T18:07:59.285Z,100037.09
2022-08-03T18:10:35.190Z,100043.84
2022-08-03T18:13:10.482Z,100056.94
2022-08-03T18:15:51.962Z,100057.53
2022-08-03T18:18:29.286Z,100051.69
2022-08-03T18:21:04.534Z,100055.94
2022-08-03T18:23:37.222Z,100043.53
2022-08-03T18:26:07.406Z,100046.09
2022-08-03T18:28:38.549Z,100053.47
2022-08-03T18:31:07.586Z,100053.06
2022-08-03T18:34:17.950Z,100035.25
2022-08-03T18:36:29.991Z,100054.63
2022-08-03T18:38:59.744Z,100060.75
2022-08-03T18:41:33.191Z,100050.25
2022-08-03T18:44:08.747Z,100052.41
2022-08-03T18:47:15.756Z,100062.75
2022-08-03T18:50:24.648Z,100065.94
2022-08-03T18:53:22.705Z,100063.00
2022-08-03T18:56:34.998Z,100067.44
2022-08-03T19:02:21.021Z,100068.47
2022-08-03T19:04:53.221Z,100063.41
2022-08-03T19:07:26.729Z,100067.16
2022-08-03T19:09:59.384Z,100070.13
2022-08-03T19:12:39.782Z,100057.88
2022-08-03T19:15:12.791Z,100079.06
2022-08-03T19:17:53.002Z,100079.28
2022-08-03T19:20:30.981Z,100070.78
2022-08-03T19:22:59.808Z,100082.75
2022-08-03T19:25:34.700Z,100091.97
2022-08-03T19:28:04.139Z,100087.06
2022-08-03T19:30:39.063Z,100084.72
2022-08-03T19:33:09.463Z,100068.00
2022-08-03T19:35:52.238Z,100069.88
2022-08-03T19:38:29.048Z,100088.50
2022-08-03T19:41:03.022Z,100074.34
2022-08-03T19:43:53.140Z,100100.78
2022-08-03T19:46:21.811Z,100096.94
2022-08-03T19:48:59.811Z,100101.31
2022-08-03T19:52:00.653Z,100093.66
2022-08-03T19:54:29.975Z,100083.28
2022-08-03T19:57:00.393Z,100083.00
2022-08-03T19:59:29.903Z,100088.03
2022-08-03T20:01:57.516Z,100067.75
2022-08-03T20:04:24.406Z,100092.50
2022-08-03T20:06:52.207Z,100097.06
2022-08-03T20:09:20.546Z,100079.75
2022-08-03T20:11:47.815Z,100084.53
2022-08-03T20:14:20.776Z,100081.34
2022-08-03T20:16:53.521Z,100078.16
2022-08-03T20:19:20.534Z,100081.91
2022-08-03T20:21:50.003Z,100086.91
2022-08-03T20:24:25.031Z,100086.81
2022-08-03T20:26:57.726Z,100090.09
2022-08-03T20:29:42.680Z,100080.75
2022-08-03T20:32:27.804Z,100062.13
2022-08-03T20:34:54.454Z,100089.25
2022-08-03T20:37:22.098Z,100088.31
2022-08-03T20:39:49.582Z,100087.41
2022-08-03T20:42:21.077Z,100080.53
2022-08-03T20:45:04.291Z,100087.16
2022-08-03T20:47:33.383Z,100089.44
2022-08-03T20:50:03.851Z,100094.41
2022-08-03T20:52:33.163Z,100093.94
2022-08-03T20:54:59.885Z,100088.22
2022-08-03T20:57:33.219Z,100096.09
2022-08-03T21:00:00.752Z,100091.41
2022-08-03T21:02:29.753Z,100085.22
2022-08-03T21:04:58.101Z,100084.56
2022-08-03T21:08:04.402Z,100094.13
2022-08-03T21:10:16.676Z,100084.81
2022-08-03T21:12:46.273Z,100076.59
2022-08-03T21:13:09.393Z,100062.81
2022-08-03T21:16:02.539Z,100076.00
2022-08-03T21:18:11.120Z,100062.34
2022-08-03T21:20:41.011Z,100073.69
2022-08-03T21:23:10.430Z,100069.38
2022-08-03T21:25:58.694Z,100071.63
2022-08-03T21:28:27.675Z,100069.84
2022-08-03T21:30:54.625Z,100073.75
2022-08-03T21:33:27.908Z,100068.84
2022-08-03T21:35:54.918Z,100073.81
2022-08-03T21:38:29.768Z,100048.00
2022-08-03T21:40:57.167Z,100074.06
2022-08-03T21:43:23.998Z,100068.50
2022-08-03T21:45:54.721Z,100073.09
2022-08-03T21:48:24.931Z,100065.16
2022-08-03T21:50:52.534Z,100073.31
2022-08-03T21:53:20.066Z,100079.94
2022-08-03T21:56:08.377Z,100076.91
2022-08-03T21:59:04.144Z,100075.59
2022-08-03T22:01:35.471Z,100078.00
2022-08-03T22:04:09.329Z,100072.94
2022-08-03T22:06:42.387Z,100069.91
2022-08-03T22:09:09.454Z,100070.09
2022-08-03T22:11:38.080Z,100070.44
2022-08-03T22:14:05.331Z,100063.38
2022-08-03T22:16:32.066Z,100072.84
2022-08-03T22:18:58.717Z,100071.16
2022-08-03T22:21:36.280Z,100073.38
2022-08-03T22:24:05.444Z,100075.25
2022-08-03T22:26:35.203Z,100061.41
2022-08-03T22:29:07.416Z,100065.66
2022-08-03T22:31:58.460Z,100071.06
2022-08-03T22:34:26.779Z,100054.16
2022-08-03T22:37:00.420Z,100077.56
2022-08-03T22:39:28.830Z,100074.66
2022-08-03T22:41:59.061Z,100085.19
2022-08-03T22:44:29.387Z,100081.50
2022-08-03T22:46:56.021Z,100082.19
2022-08-03T22:49:22.978Z,100064.28
2022-08-03T22:51:51.944Z,100089.69
2022-08-03T22:54:19.240Z,100077.38
2022-08-03T22:56:50.083Z,100087.00
2022-08-03T22:59:40.633Z,100090.53
2022-08-03T23:02:15.050Z,100084.66
2022-08-03T23:05:02.734Z,100098.53
2022-08-03T23:07:34.873Z,100092.63
2022-08-03T23:10:05.058Z,100088.53
2022-08-03T23:12:34.158Z,100098.88
2022-08-03T23:15:05.058Z,100093.28
2022-08-03T23:17:32.750Z,100094.00
2022-08-03T23:20:05.175Z,100097.03
2022-08-03T23:22:34.091Z,100096.00
2022-08-03T23:25:03.996Z,100100.56
2022-08-03T23:27:32.555Z,100097.84
2022-08-03T23:30:00.872Z,100075.69
2022-08-03T23:32:30.898Z,100103.94
2022-08-03T23:35:19.964Z,100098.06
2022-08-03T23:38:10.762Z,100099.56
2022-08-03T23:40:36.878Z,100091.59
2022-08-03T23:43:05.048Z,100074.88
2022-08-03T23:45:36.190Z,100090.59
2022-08-03T23:48:02.750Z,100095.00
2022-08-03T23:50:40.110Z,100096.84
2022-08-03T23:53:26.339Z,100073.03
2022-08-03T23:56:31.242Z,100084.84
2022-08-03T23:59:12.097Z,100091.78
